ILP weather

Île des Pins Airport
Île des Pins, New Caledonia

Public forecast

Using degrees Celsius for public forecast. Weather courtesy of forecast.io.

Current aviation weather report (METAR) for Île des Pins Airport

Report is more than 6 hours old.

Retrieved 2014/06/11 06:00 UTC (6 years ago):

NWWE 110600Z AUTO 14002KT 9999 SCT036/// BKN110/// BKN150/// 21/18 Q1012

Aviation forecast (TAF) for Île des Pins Airport

Forecast is more than 12 hours old.

Retrieved 2019/12/12 18:00 UTC (14 hours ago):

TAF NWWE 121700Z 1218/1318 09005KT 9999 FEW040 PROB40 1312/1318 SHRA